createdAt,value
2019-02-20T00:00:19.621Z,16.00
2019-02-20T00:01:19.667Z,16.00
2019-02-20T00:02:19.617Z,16.00
2019-02-20T00:03:20.179Z,16.00
2019-02-20T00:04:20.162Z,16.00
2019-02-20T00:05:19.554Z,16.00
2019-02-20T00:06:19.552Z,16.00
2019-02-20T00:07:19.871Z,16.00
2019-02-20T00:08:19.526Z,16.00
2019-02-20T00:09:19.526Z,16.00
2019-02-20T00:10:19.505Z,16.00
2019-02-20T00:11:19.495Z,16.00
2019-02-20T00:12:19.481Z,16.00
2019-02-20T00:13:20.849Z,16.00
2019-02-20T00:14:19.461Z,16.00
2019-02-20T00:15:19.449Z,16.00
2019-02-20T00:16:19.437Z,16.00
2019-02-20T00:17:19.427Z,16.00
2019-02-20T00:18:19.418Z,16.00
2019-02-20T00:19:20.324Z,16.00
2019-02-20T00:20:19.398Z,16.00
2019-02-20T00:21:20.163Z,16.00
2019-02-20T00:22:19.380Z,16.00
2019-02-20T00:23:19.369Z,16.00
2019-02-20T00:24:19.375Z,16.00
2019-02-20T00:25:19.920Z,16.00
2019-02-20T00:26:19.341Z,16.00
2019-02-20T00:27:19.336Z,16.00
2019-02-20T00:28:19.315Z,16.00
2019-02-20T00:29:19.310Z,16.00
2019-02-20T00:30:19.289Z,16.00
2019-02-20T00:31:19.689Z,16.00
2019-02-20T00:32:19.283Z,16.00
2019-02-20T00:33:19.259Z,16.00
2019-02-20T00:34:19.254Z,16.00
2019-02-20T00:35:19.250Z,16.00
2019-02-20T00:36:19.227Z,16.00
2019-02-20T00:37:19.295Z,16.00
2019-02-20T00:38:19.506Z,16.00
2019-02-20T00:39:19.197Z,16.00
2019-02-20T00:40:19.191Z,16.00
2019-02-20T00:41:19.175Z,16.00
2019-02-20T00:42:19.164Z,16.00
2019-02-20T00:43:19.276Z,16.00
2019-02-20T00:44:19.144Z,16.00
2019-02-20T00:45:19.423Z,16.00
2019-02-20T00:46:19.672Z,16.00
2019-02-20T00:47:19.134Z,16.00
2019-02-20T00:48:19.104Z,16.00
2019-02-20T00:49:19.414Z,16.00
2019-02-20T00:50:19.659Z,16.00
2019-02-20T00:51:19.085Z,16.00
2019-02-20T00:52:19.349Z,16.00
2019-02-20T00:53:19.052Z,16.00
2019-02-20T00:54:19.038Z,16.00
2019-02-20T00:55:19.109Z,16.00
2019-02-20T00:56:19.022Z,16.00
2019-02-20T00:57:19.015Z,16.00
2019-02-20T00:58:19.032Z,16.00
2019-02-20T00:59:19.289Z,16.00
2019-02-20T01:00:18.977Z,16.00
2019-02-20T01:01:19.067Z,16.00
2019-02-20T01:02:18.961Z,16.00
2019-02-20T01:03:18.948Z,16.00
2019-02-20T01:04:18.934Z,16.00
2019-02-20T01:05:18.937Z,16.00
2019-02-20T01:06:19.213Z,16.00
2019-02-20T01:07:19.011Z,16.00
2019-02-20T01:08:18.895Z,16.00
2019-02-20T01:09:18.887Z,16.00
2019-02-20T01:10:18.872Z,16.00
2019-02-20T01:11:19.624Z,16.00
2019-02-20T01:12:18.863Z,16.00
2019-02-20T01:13:19.200Z,16.00
2019-02-20T01:14:18.830Z,16.00
2019-02-20T01:15:18.817Z,16.00
2019-02-20T01:16:18.810Z,16.00
2019-02-20T01:17:18.803Z,16.00
2019-02-20T01:18:18.791Z,16.00
2019-02-20T01:19:19.011Z,16.00
2019-02-20T01:20:19.045Z,16.00
2019-02-20T01:21:18.757Z,16.00
2019-02-20T01:22:18.745Z,16.00
2019-02-20T01:23:18.734Z,16.00
2019-02-20T01:24:18.725Z,16.00
2019-02-20T01:25:18.947Z,16.00
2019-02-20T01:26:18.724Z,16.00
2019-02-20T01:27:19.018Z,16.00
2019-02-20T01:28:18.684Z,16.00
2019-02-20T01:29:18.679Z,16.00
2019-02-20T01:30:18.659Z,16.00
2019-02-20T01:31:19.014Z,16.00
2019-02-20T01:32:18.639Z,16.00
2019-02-20T01:33:18.628Z,16.00
2019-02-20T01:34:18.919Z,16.00
2019-02-20T01:35:18.609Z,16.00
2019-02-20T01:36:18.601Z,16.00
2019-02-20T01:37:18.968Z,16.00
2019-02-20T01:38:18.574Z,16.00
2019-02-20T01:39:18.569Z,16.00
2019-02-20T01:40:18.565Z,16.00
2019-02-20T01:41:19.621Z,16.00
2019-02-20T01:42:18.534Z,16.00
2019-02-20T01:43:18.613Z,16.00
2019-02-20T01:44:18.513Z,16.00
2019-02-20T01:45:18.501Z,16.00
2019-02-20T01:46:18.494Z,16.00
2019-02-20T01:47:18.481Z,16.00
2019-02-20T01:48:18.763Z,16.00
2019-02-20T01:49:18.550Z,16.00
2019-02-20T01:50:18.450Z,16.00
2019-02-20T01:51:18.446Z,16.00
2019-02-20T01:52:18.427Z,16.00
2019-02-20T01:53:18.418Z,16.00
2019-02-20T01:54:18.412Z,16.00
2019-02-20T01:55:18.797Z,16.00
2019-02-20T01:56:18.387Z,16.00
2019-02-20T01:57:18.384Z,16.00
2019-02-20T01:58:18.367Z,16.00
2019-02-20T01:59:18.354Z,16.00
2019-02-20T02:00:18.345Z,16.00
2019-02-20T02:01:18.419Z,16.00
2019-02-20T02:02:19.803Z,16.00
2019-02-20T02:03:18.332Z,16.00
2019-02-20T02:04:18.300Z,16.00
2019-02-20T02:05:18.307Z,16.00
2019-02-20T02:06:18.317Z,16.00
2019-02-20T02:07:18.359Z,16.00
2019-02-20T02:08:18.285Z,16.00
2019-02-20T02:09:18.553Z,16.00
2019-02-20T02:10:18.239Z,16.00
2019-02-20T02:11:18.227Z,16.00
2019-02-20T02:12:18.242Z,16.00
2019-02-20T02:13:18.558Z,16.00
2019-02-20T02:14:18.201Z,16.00
2019-02-20T02:15:20.754Z,16.00
2019-02-20T02:16:18.501Z,16.00
2019-02-20T02:17:18.168Z,16.00
2019-02-20T02:18:18.157Z,16.00
2019-02-20T02:19:18.274Z,16.00
2019-02-20T02:20:18.152Z,16.00
2019-02-20T02:21:18.127Z,16.00
2019-02-20T02:22:18.119Z,16.00
2019-02-20T02:23:20.050Z,16.00
2019-02-20T02:24:18.113Z,16.00
2019-02-20T02:25:18.156Z,16.00
2019-02-20T02:26:18.072Z,16.00
2019-02-20T02:27:18.067Z,16.00
2019-02-20T02:28:18.120Z,20.00
2019-02-20T02:29:18.048Z,16.00
2019-02-20T02:30:18.313Z,16.00
2019-02-20T02:31:18.097Z,16.00
2019-02-20T02:32:18.023Z,16.00
2019-02-20T02:33:18.010Z,16.00
2019-02-20T02:34:17.995Z,16.00
2019-02-20T02:35:17.989Z,16.00
2019-02-20T02:36:17.972Z,16.00
2019-02-20T02:37:18.287Z,16.00
2019-02-20T02:38:17.945Z,16.00
2019-02-20T02:39:17.941Z,16.00
2019-02-20T02:40:17.941Z,16.00
2019-02-20T02:41:17.926Z,16.00
2019-02-20T02:42:17.902Z,16.00
2019-02-20T02:43:17.933Z,16.00
2019-02-20T02:44:18.172Z,16.00
2019-02-20T02:45:17.873Z,16.00
2019-02-20T02:46:17.863Z,16.00
2019-02-20T02:47:17.861Z,16.00
2019-02-20T02:48:17.852Z,16.00
2019-02-20T02:49:17.914Z,16.00
2019-02-20T02:50:17.819Z,16.00
2019-02-20T02:51:18.119Z,16.00
2019-02-20T02:52:17.812Z,16.00
2019-02-20T02:53:17.799Z,16.00
2019-02-20T02:54:17.778Z,16.00
2019-02-20T02:55:17.819Z,16.00
2019-02-20T02:56:17.755Z,16.00
2019-02-20T02:57:17.750Z,16.00
2019-02-20T02:58:18.035Z,16.00
2019-02-20T02:59:17.729Z,20.00
2019-02-20T03:01:43.238Z,16.00
2019-02-20T03:02:42.658Z,16.00
2019-02-20T03:03:42.674Z,16.00
2019-02-20T03:04:42.630Z,16.00
2019-02-20T03:05:42.629Z,16.00
2019-02-20T03:06:42.619Z,16.00
2019-02-20T03:07:42.999Z,16.00
2019-02-20T03:08:42.590Z,16.00
2019-02-20T03:09:42.609Z,16.00
2019-02-20T03:10:42.571Z,16.00
2019-02-20T03:11:42.551Z,16.00
2019-02-20T03:12:42.560Z,16.00
2019-02-20T03:13:42.583Z,16.00
2019-02-20T03:14:42.846Z,16.00
2019-02-20T03:15:42.498Z,16.00
2019-02-20T03:16:42.496Z,16.00
2019-02-20T03:17:42.487Z,16.00
2019-02-20T03:18:42.512Z,16.00
2019-02-20T03:19:42.520Z,16.00
2019-02-20T03:20:42.476Z,16.00
2019-02-20T03:21:42.438Z,16.00
2019-02-20T03:22:42.440Z,16.00
2019-02-20T03:23:42.439Z,16.00
2019-02-20T03:24:42.431Z,16.00
2019-02-20T03:25:42.444Z,16.00
2019-02-20T03:26:42.413Z,16.00
2019-02-20T03:27:42.724Z,16.00
2019-02-20T03:28:42.374Z,16.00
2019-02-20T03:29:42.401Z,16.00
2019-02-20T03:30:42.361Z,16.00
2019-02-20T03:31:42.387Z,16.00
2019-02-20T03:32:42.362Z,16.00
2019-02-20T03:33:42.330Z,16.00
2019-02-20T03:34:42.623Z,16.00
2019-02-20T03:35:42.299Z,16.00
2019-02-20T03:36:42.287Z,16.00
2019-02-20T03:37:42.395Z,16.00
2019-02-20T03:38:42.273Z,16.00
2019-02-20T03:39:42.260Z,16.00
2019-02-20T03:40:42.244Z,16.00
2019-02-20T03:41:42.549Z,16.00
2019-02-20T03:42:42.255Z,16.00
2019-02-20T03:43:42.676Z,16.00
2019-02-20T03:44:42.240Z,16.00
2019-02-20T03:45:42.213Z,16.00
2019-02-20T03:46:42.189Z,16.00
2019-02-20T03:47:42.187Z,16.00
2019-02-20T03:48:42.480Z,16.00
2019-02-20T03:49:42.216Z,16.00
2019-02-20T03:50:42.164Z,16.00
2019-02-20T03:51:43.154Z,20.00
2019-02-20T03:52:42.130Z,16.00
2019-02-20T03:53:51.161Z,16.00
2019-02-20T03:54:43.266Z,16.00
2019-02-20T03:55:42.389Z,16.00
2019-02-20T03:56:42.087Z,16.00
2019-02-20T03:57:42.056Z,16.00
2019-02-20T03:58:42.066Z,16.00
2019-02-20T03:59:42.062Z,16.00
2019-02-20T04:00:42.097Z,16.00
2019-02-20T04:01:42.349Z,16.00
2019-02-20T04:02:42.015Z,16.00
2019-02-20T04:03:42.025Z,16.00
2019-02-20T04:04:42.015Z,16.00
2019-02-20T04:05:41.985Z,16.00
2019-02-20T04:06:42.023Z,16.00
2019-02-20T04:07:41.960Z,16.00
2019-02-20T04:08:41.951Z,20.00
2019-02-20T04:09:41.950Z,16.00
2019-02-20T04:10:41.936Z,16.00
2019-02-20T04:11:41.927Z,16.00
2019-02-20T04:12:42.857Z,16.00
2019-02-20T04:13:42.212Z,16.00
2019-02-20T04:14:41.899Z,16.00
2019-02-20T04:15:41.894Z,16.00
2019-02-20T04:16:41.874Z,16.00
2019-02-20T04:17:41.867Z,16.00
2019-02-20T04:18:42.101Z,16.00
2019-02-20T04:19:41.876Z,16.00
2019-02-20T04:20:41.969Z,16.00
2019-02-20T04:21:41.813Z,16.00
2019-02-20T04:22:41.836Z,16.00
2019-02-20T04:23:41.839Z,16.00
2019-02-20T04:24:41.976Z,16.00
2019-02-20T04:25:42.095Z,16.00
2019-02-20T04:26:41.768Z,16.00
2019-02-20T04:27:41.765Z,16.00
2019-02-20T04:28:41.764Z,16.00
2019-02-20T04:29:41.735Z,16.00
2019-02-20T04:30:42.231Z,16.00
2019-02-20T04:31:42.027Z,16.00
2019-02-20T04:32:41.709Z,16.00
2019-02-20T04:33:42.617Z,16.00
2019-02-20T04:34:41.700Z,16.00
2019-02-20T04:35:41.675Z,16.00
2019-02-20T04:36:41.701Z,16.00
2019-02-20T04:37:41.654Z,16.00
2019-02-20T04:38:41.944Z,16.00
2019-02-20T04:39:41.617Z,16.00
2019-02-20T04:40:41.634Z,16.00
2019-02-20T04:41:41.595Z,16.00
2019-02-20T04:42:41.665Z,16.00
2019-02-20T04:43:41.589Z,16.00
2019-02-20T04:44:41.583Z,16.00
2019-02-20T04:45:41.890Z,16.00
2019-02-20T04:46:41.569Z,16.00
2019-02-20T04:47:41.555Z,20.00
2019-02-20T04:48:41.850Z,16.00
2019-02-20T04:49:41.524Z,16.00
2019-02-20T04:50:41.543Z,16.00
2019-02-20T04:51:41.525Z,16.00
2019-02-20T04:52:41.910Z,16.00
2019-02-20T04:53:41.508Z,16.00
2019-02-20T04:54:41.508Z,16.00
2019-02-20T04:55:41.473Z,16.00
2019-02-20T04:56:42.213Z,16.00
2019-02-20T04:57:41.482Z,16.00
2019-02-20T04:58:41.511Z,16.00
2019-02-20T04:59:41.747Z,16.00
2019-02-20T05:00:41.449Z,16.00
2019-02-20T05:01:41.396Z,16.00
2019-02-20T05:02:41.382Z,16.00
2019-02-20T05:03:41.369Z,16.00
2019-02-20T05:04:42.104Z,16.00
2019-02-20T05:05:41.368Z,16.00
2019-02-20T05:06:41.422Z,16.00
2019-02-20T05:07:41.352Z,16.00
2019-02-20T05:08:41.316Z,16.00
2019-02-20T05:09:41.325Z,16.00
2019-02-20T05:10:41.316Z,16.00
2019-02-20T05:11:41.297Z,16.00
2019-02-20T05:12:41.648Z,16.00
2019-02-20T05:13:41.270Z,20.00
2019-02-20T05:14:41.286Z,20.00
2019-02-20T05:15:41.287Z,16.00
2019-02-20T05:16:41.239Z,16.00
2019-02-20T05:17:41.233Z,20.00
2019-02-20T05:18:41.275Z,16.00
2019-02-20T05:19:41.209Z,16.00
2019-02-20T05:20:41.238Z,20.00
2019-02-20T05:21:41.240Z,20.00
2019-02-20T05:22:41.191Z,16.00
2019-02-20T05:23:42.773Z,16.00
2019-02-20T05:24:41.688Z,16.00
2019-02-20T05:25:41.171Z,16.00
2019-02-20T05:26:41.153Z,16.00
2019-02-20T05:27:41.122Z,16.00
2019-02-20T05:28:41.110Z,16.00
2019-02-20T05:29:41.098Z,16.00
2019-02-20T05:30:41.172Z,16.00
2019-02-20T05:31:41.084Z,16.00
2019-02-20T05:32:41.065Z,16.00
2019-02-20T05:33:41.088Z,16.00
2019-02-20T05:34:41.050Z,16.00
2019-02-20T05:35:41.044Z,20.00
2019-02-20T05:36:41.424Z,16.00
2019-02-20T05:37:41.049Z,16.00
2019-02-20T05:38:41.635Z,16.00
2019-02-20T05:39:41.031Z,16.00
2019-02-20T05:40:41.012Z,16.00
2019-02-20T05:41:40.991Z,16.00
2019-02-20T05:42:41.060Z,16.00
2019-02-20T05:43:40.991Z,16.00
2019-02-20T05:44:40.941Z,16.00
2019-02-20T05:45:40.961Z,20.00
2019-02-20T05:46:40.925Z,20.00
2019-02-20T05:47:40.908Z,16.00
2019-02-20T05:48:41.052Z,16.00
2019-02-20T05:49:41.275Z,16.00
2019-02-20T05:50:40.881Z,20.00
2019-02-20T05:51:40.915Z,20.00
2019-02-20T05:52:40.865Z,20.00
2019-02-20T05:53:40.851Z,20.00
2019-02-20T05:54:40.923Z,20.00
2019-02-20T05:55:40.833Z,20.00
2019-02-20T05:56:40.826Z,20.00
2019-02-20T05:57:40.812Z,20.00
2019-02-20T05:58:40.800Z,20.00
2019-02-20T05:59:40.819Z,20.00
2019-02-20T06:00:41.072Z,20.00
2019-02-20T06:01:41.086Z,20.00
2019-02-20T06:02:40.771Z,20.00
2019-02-20T06:03:40.808Z,16.00
2019-02-20T06:04:40.732Z,20.00
2019-02-20T06:05:41.618Z,20.00
2019-02-20T06:06:40.778Z,20.00
2019-02-20T06:07:40.754Z,20.00
2019-02-20T06:08:40.792Z,24.00
2019-02-20T06:09:40.704Z,20.00
2019-02-20T06:10:40.692Z,24.00
2019-02-20T06:11:40.656Z,24.00
2019-02-20T06:12:40.702Z,28.00
2019-02-20T06:13:41.101Z,28.00
2019-02-20T06:14:40.639Z,28.00
2019-02-20T06:15:40.654Z,28.00
2019-02-20T06:16:40.628Z,32.00
2019-02-20T06:17:40.605Z,32.00
2019-02-20T06:18:40.743Z,36.00
2019-02-20T06:19:40.656Z,40.00
2019-02-20T06:20:40.604Z,44.00
2019-02-20T06:21:40.561Z,48.00
2019-02-20T06:22:40.620Z,52.00
2019-02-20T06:23:40.733Z,60.00
2019-02-20T06:24:44.148Z,64.00
2019-02-20T06:25:42.465Z,68.00
2019-02-20T06:26:40.640Z,72.00
2019-02-20T06:27:40.556Z,80.00
2019-02-20T06:28:40.482Z,84.00
2019-02-20T06:29:40.522Z,76.00
2019-02-20T06:30:40.761Z,80.00
2019-02-20T06:31:40.832Z,88.00
2019-02-20T06:32:40.486Z,96.00
2019-02-20T06:33:40.697Z,104.00
2019-02-20T06:34:41.053Z,108.00
2019-02-20T06:35:40.471Z,116.00
2019-02-20T06:36:40.570Z,120.00
2019-02-20T06:37:40.689Z,128.00
2019-02-20T06:38:53.440Z,132.00
2019-02-20T06:39:41.287Z,140.00
2019-02-20T06:40:40.496Z,152.00
2019-02-20T06:41:40.371Z,156.00
2019-02-20T06:42:42.159Z,168.00
2019-02-20T06:43:40.401Z,184.00
2019-02-20T06:44:40.459Z,192.00
2019-02-20T06:45:42.889Z,208.00
2019-02-20T06:46:42.049Z,216.00
2019-02-20T06:47:40.366Z,232.00
2019-02-20T06:48:42.425Z,244.00
2019-02-20T06:49:41.134Z,264.00
2019-02-20T06:50:40.693Z,280.00
2019-02-20T06:51:40.475Z,304.00
2019-02-20T06:52:42.983Z,328.00
2019-02-20T06:53:40.419Z,356.00
2019-02-20T06:54:40.542Z,380.00
2019-02-20T06:55:41.725Z,408.00
2019-02-20T06:56:40.497Z,432.00
2019-02-20T06:57:40.360Z,460.00
2019-02-20T06:58:41.020Z,484.00
2019-02-20T06:59:40.571Z,500.00
2019-02-20T07:00:40.231Z,524.00
2019-02-20T07:01:42.104Z,544.00
2019-02-20T07:02:40.179Z,564.00
2019-02-20T07:03:40.129Z,584.00
2019-02-20T07:04:40.111Z,600.00
2019-02-20T07:05:44.656Z,620.00
2019-02-20T07:06:40.244Z,636.00
2019-02-20T07:07:40.097Z,652.00
2019-02-20T07:08:40.115Z,668.00
2019-02-20T07:09:40.074Z,680.00
2019-02-20T07:10:40.231Z,692.00
2019-02-20T07:11:40.058Z,696.00
2019-02-20T07:12:40.914Z,708.00
2019-02-20T07:13:40.071Z,724.00
2019-02-20T07:14:40.114Z,748.00
2019-02-20T07:15:40.020Z,772.00
2019-02-20T07:16:40.044Z,796.00
2019-02-20T07:17:40.819Z,820.00
2019-02-20T07:18:40.060Z,848.00
2019-02-20T07:19:40.016Z,872.00
2019-02-20T07:20:40.604Z,892.00
2019-02-20T07:21:40.028Z,912.00
2019-02-20T07:22:40.069Z,928.00
2019-02-20T07:23:40.015Z,940.00
2019-02-20T07:24:42.389Z,964.00
2019-02-20T07:25:39.978Z,988.00
2019-02-20T07:26:40.645Z,1024.00
2019-02-20T07:27:39.936Z,1068.00
2019-02-20T07:28:39.870Z,1112.00
2019-02-20T07:29:39.913Z,1164.00
2019-02-20T07:30:39.953Z,1212.00
2019-02-20T07:31:39.844Z,1260.00
2019-02-20T07:32:39.850Z,1312.00
2019-02-20T07:33:39.812Z,1368.00
2019-02-20T07:34:39.808Z,1440.00
2019-02-20T07:35:39.842Z,1516.00
2019-02-20T07:36:39.824Z,1632.00
2019-02-20T07:37:39.813Z,1756.00
2019-02-20T07:38:39.757Z,1888.00
2019-02-20T07:39:39.743Z,2016.00
2019-02-20T07:40:39.755Z,2136.00
2019-02-20T07:41:39.732Z,2268.00
2019-02-20T07:42:40.936Z,2384.00
2019-02-20T07:43:39.715Z,2508.00
2019-02-20T07:44:39.693Z,2628.00
2019-02-20T07:45:39.680Z,2736.00
2019-02-20T07:46:39.686Z,2812.00
2019-02-20T07:47:39.671Z,2824.00
2019-02-20T07:48:39.705Z,2812.00
2019-02-20T07:49:40.039Z,2768.00
2019-02-20T07:50:39.649Z,2740.00
2019-02-20T07:51:39.660Z,2724.00
2019-02-20T07:52:39.613Z,2708.00
2019-02-20T07:53:39.604Z,2692.00
2019-02-20T07:54:39.635Z,2684.00
2019-02-20T07:55:39.599Z,2664.00
2019-02-20T07:56:39.575Z,2628.00
2019-02-20T07:57:39.616Z,2596.00
2019-02-20T07:58:39.557Z,2544.00
2019-02-20T07:59:39.550Z,2492.00
2019-02-20T08:00:39.595Z,2456.00
2019-02-20T08:01:39.541Z,2376.00
2019-02-20T08:02:39.510Z,2368.00
2019-02-20T08:03:39.500Z,2320.00
2019-02-20T08:04:39.483Z,2252.00
2019-02-20T08:05:39.479Z,2080.00
2019-02-20T08:06:39.585Z,1960.00
2019-02-20T08:07:40.922Z,1880.00
2019-02-20T08:08:39.441Z,1940.00
2019-02-20T08:09:39.466Z,1896.00
2019-02-20T08:10:39.428Z,1848.00
2019-02-20T08:11:39.401Z,1876.00
2019-02-20T08:12:39.473Z,1940.00
2019-02-20T08:13:39.682Z,1980.00
2019-02-20T08:14:39.386Z,1956.00
2019-02-20T08:15:39.393Z,1980.00
2019-02-20T08:16:39.361Z,1916.00
2019-02-20T08:17:39.380Z,1912.00
2019-02-20T08:18:39.390Z,2052.00
2019-02-20T08:19:40.113Z,2288.00
2019-02-20T08:20:39.352Z,2292.00
2019-02-20T08:21:39.347Z,2292.00
2019-02-20T08:22:39.331Z,2284.00
2019-02-20T08:23:39.302Z,2232.00
2019-02-20T08:24:39.343Z,2312.00
2019-02-20T08:25:39.292Z,2260.00
2019-02-20T08:26:40.091Z,2248.00
2019-02-20T08:27:39.355Z,2180.00
2019-02-20T08:28:39.267Z,2136.00
2019-02-20T08:29:39.233Z,2044.00
2019-02-20T08:30:39.306Z,1992.00
2019-02-20T08:31:39.211Z,1864.00
2019-02-20T08:32:39.189Z,1768.00
2019-02-20T08:33:39.745Z,1684.00
2019-02-20T08:34:39.178Z,1604.00
2019-02-20T08:35:39.165Z,1548.00
2019-02-20T08:36:39.220Z,1520.00
2019-02-20T08:37:39.138Z,1480.00
2019-02-20T08:38:40.087Z,1528.00
2019-02-20T08:39:40.111Z,1620.00
2019-02-20T08:40:39.176Z,1636.00
2019-02-20T08:41:39.113Z,1720.00
2019-02-20T08:42:40.729Z,1828.00
2019-02-20T08:43:39.067Z,1820.00
2019-02-20T08:44:39.105Z,1920.00
2019-02-20T08:45:39.078Z,2060.00
2019-02-20T08:46:40.059Z,2032.00
2019-02-20T08:47:39.605Z,2140.00
2019-02-20T08:48:39.192Z,2144.00
2019-02-20T08:49:39.607Z,2148.00
2019-02-20T08:50:39.012Z,2340.00
2019-02-20T08:51:38.995Z,2416.00
2019-02-20T08:52:38.993Z,2552.00
2019-02-20T08:53:39.630Z,2792.00
2019-02-20T08:54:39.066Z,3040.00
2019-02-20T08:55:38.986Z,3240.00
2019-02-20T08:56:38.967Z,3196.00
2019-02-20T08:57:38.953Z,3140.00
2019-02-20T08:58:38.926Z,3288.00
2019-02-20T08:59:40.549Z,3372.00
2019-02-20T09:00:39.244Z,3268.00
2019-02-20T09:01:38.926Z,3412.00
2019-02-20T09:02:38.930Z,3448.00
2019-02-20T09:03:38.905Z,3196.00
2019-02-20T09:04:38.860Z,3212.00
2019-02-20T09:05:38.876Z,3268.00
2019-02-20T09:06:39.435Z,3432.00
2019-02-20T09:07:38.907Z,3560.00
2019-02-20T09:08:38.865Z,3660.00
2019-02-20T09:09:38.947Z,3500.00
2019-02-20T09:10:38.900Z,3816.00
2019-02-20T09:11:38.816Z,3976.00
2019-02-20T09:12:39.551Z,4272.00
2019-02-20T09:13:39.135Z,4640.00
2019-02-20T09:14:41.599Z,5024.00
2019-02-20T09:15:38.746Z,5284.00
2019-02-20T09:16:38.721Z,5432.00
2019-02-20T09:17:38.756Z,5500.00
2019-02-20T09:18:38.833Z,5588.00
2019-02-20T09:19:38.700Z,5672.00
2019-02-20T09:20:45.607Z,5896.00
2019-02-20T09:21:38.681Z,5744.00
2019-02-20T09:22:39.555Z,5884.00
2019-02-20T09:23:38.676Z,6044.00
2019-02-20T09:24:39.154Z,6204.00
2019-02-20T09:25:41.556Z,6208.00
2019-02-20T09:26:38.635Z,6200.00
2019-02-20T09:27:38.989Z,6248.00
2019-02-20T09:28:38.626Z,6180.00
2019-02-20T09:29:38.589Z,6056.00
2019-02-20T09:30:39.423Z,5912.00
2019-02-20T09:31:38.627Z,5800.00
2019-02-20T09:32:38.576Z,5664.00
2019-02-20T09:33:38.569Z,5596.00
2019-02-20T09:34:39.018Z,5560.00
2019-02-20T09:35:38.564Z,5540.00
2019-02-20T09:36:38.586Z,5724.00
2019-02-20T09:37:38.507Z,5888.00
2019-02-20T09:38:38.705Z,6152.00
2019-02-20T09:39:38.501Z,6508.00
2019-02-20T09:40:38.482Z,6940.00
2019-02-20T09:41:39.128Z,7364.00
2019-02-20T09:42:38.530Z,7720.00
2019-02-20T09:43:38.443Z,7988.00
2019-02-20T09:44:38.444Z,8288.00
2019-02-20T09:45:42.009Z,8324.00
2019-02-20T09:46:39.450Z,8416.00
2019-02-20T09:47:38.423Z,8604.00
2019-02-20T09:48:38.947Z,8756.00
2019-02-20T09:49:38.390Z,8860.00
2019-02-20T09:50:38.433Z,9072.00
2019-02-20T09:51:39.101Z,9356.00
2019-02-20T09:52:39.146Z,9444.00
2019-02-20T09:53:40.092Z,9120.00
2019-02-20T09:54:38.682Z,8856.00
2019-02-20T09:55:38.320Z,8680.00
2019-02-20T09:56:38.335Z,8552.00
2019-02-20T09:57:38.354Z,8324.00
2019-02-20T09:58:38.402Z,8376.00
2019-02-20T09:59:38.295Z,8528.00
2019-02-20T10:00:38.607Z,8648.00
2019-02-20T10:01:38.297Z,8968.00
2019-02-20T10:02:38.261Z,9224.00
2019-02-20T10:03:38.285Z,9608.00
2019-02-20T10:04:38.238Z,10288.00
2019-02-20T10:05:38.220Z,10808.00
2019-02-20T10:06:38.301Z,11344.00
2019-02-20T10:07:38.621Z,11504.00
2019-02-20T10:08:38.183Z,11560.00
2019-02-20T10:09:38.211Z,11344.00
2019-02-20T10:10:38.233Z,10928.00
2019-02-20T10:11:38.158Z,10472.00
2019-02-20T10:12:38.212Z,10292.00
2019-02-20T10:13:39.286Z,10272.00
2019-02-20T10:14:38.115Z,9852.00
2019-02-20T10:15:38.145Z,9168.00
2019-02-20T10:16:38.105Z,8444.00
2019-02-20T10:17:38.095Z,7984.00
2019-02-20T10:18:38.160Z,7532.00
2019-02-20T10:19:38.514Z,7288.00
2019-02-20T10:20:38.078Z,7236.00
2019-02-20T10:21:38.073Z,7344.00
2019-02-20T10:22:38.578Z,7528.00
2019-02-20T10:23:38.067Z,7548.00
2019-02-20T10:24:38.069Z,7460.00
2019-02-20T10:25:38.256Z,7284.00
2019-02-20T10:26:38.606Z,7276.00
2019-02-20T10:27:38.062Z,7560.00
2019-02-20T10:28:38.020Z,7820.00
2019-02-20T10:29:37.952Z,7904.00
2019-02-20T10:30:38.168Z,7888.00
2019-02-20T10:31:37.945Z,7856.00
2019-02-20T10:32:37.933Z,7868.00
2019-02-20T10:33:38.570Z,7700.00
2019-02-20T10:34:37.943Z,8268.00
2019-02-20T10:35:37.971Z,8632.00
2019-02-20T10:36:37.952Z,8920.00
2019-02-20T10:37:37.873Z,9256.00
2019-02-20T10:38:38.295Z,9508.00
2019-02-20T10:39:37.877Z,9900.00
2019-02-20T10:40:37.867Z,10012.00
2019-02-20T10:41:37.874Z,9960.00
2019-02-20T10:42:45.610Z,9776.00
2019-02-20T10:43:37.815Z,9732.00
2019-02-20T10:44:37.830Z,9748.00
2019-02-20T10:45:38.284Z,9544.00
2019-02-20T10:46:40.563Z,9780.00
2019-02-20T10:47:37.996Z,9964.00
2019-02-20T10:48:37.841Z,10140.00
2019-02-20T10:49:37.755Z,10364.00
2019-02-20T10:50:38.577Z,10884.00
2019-02-20T10:51:37.763Z,11484.00
2019-02-20T10:52:37.745Z,12068.00
2019-02-20T10:53:38.094Z,12464.00
2019-02-20T10:54:37.772Z,12280.00
2019-02-20T10:55:37.676Z,12320.00
2019-02-20T10:56:37.688Z,12424.00
2019-02-20T10:57:37.706Z,12824.00
2019-02-20T10:58:37.666Z,13228.00
2019-02-20T10:59:37.641Z,13304.00
2019-02-20T11:00:37.704Z,13496.00
2019-02-20T11:01:37.657Z,13632.00
2019-02-20T11:02:37.690Z,13704.00
2019-02-20T11:03:37.619Z,13336.00
2019-02-20T11:04:38.525Z,12700.00
2019-02-20T11:05:37.612Z,11948.00
2019-02-20T11:06:38.167Z,11288.00
2019-02-20T11:07:37.557Z,10804.00
2019-02-20T11:08:37.601Z,10472.00
2019-02-20T11:09:37.641Z,9864.00
2019-02-20T11:10:37.541Z,9596.00
2019-02-20T11:11:37.611Z,9824.00
2019-02-20T11:12:37.566Z,9836.00
2019-02-20T11:13:37.571Z,9796.00
2019-02-20T11:14:37.864Z,9580.00
2019-02-20T11:15:37.488Z,9480.00
2019-02-20T11:16:37.478Z,9472.00
2019-02-20T11:17:37.611Z,9860.00
2019-02-20T11:18:37.503Z,10188.00
2019-02-20T11:19:37.426Z,10424.00
2019-02-20T11:20:37.710Z,10548.00
2019-02-20T11:21:37.827Z,10864.00
2019-02-20T11:22:48.561Z,11704.00
2019-02-20T11:23:37.674Z,12696.00
2019-02-20T11:24:37.499Z,13768.00
2019-02-20T11:25:37.696Z,14660.00
2019-02-20T11:26:50.273Z,14960.00
2019-02-20T11:27:39.572Z,15360.00
2019-02-20T11:28:37.367Z,15568.00
2019-02-20T11:29:37.760Z,15544.00
2019-02-20T11:30:37.385Z,15392.00
2019-02-20T11:31:37.364Z,15276.00
2019-02-20T11:32:37.341Z,14520.00
2019-02-20T11:33:37.904Z,13456.00
2019-02-20T11:34:39.029Z,13180.00
2019-02-20T11:35:38.816Z,13232.00
2019-02-20T11:36:41.080Z,12948.00
2019-02-20T11:37:37.262Z,12820.00
2019-02-20T11:38:38.177Z,12720.00
2019-02-20T11:39:37.879Z,12640.00
2019-02-20T11:40:52.064Z,12992.00
2019-02-20T11:41:37.280Z,12824.00
2019-02-20T11:42:37.288Z,12896.00
2019-02-20T11:43:38.578Z,12520.00
2019-02-20T11:44:37.244Z,11808.00
2019-02-20T11:45:37.277Z,12184.00
2019-02-20T11:46:37.228Z,12636.00
2019-02-20T11:47:37.285Z,13048.00
2019-02-20T11:48:37.235Z,12988.00
2019-02-20T11:49:37.218Z,12672.00
2019-02-20T11:50:40.559Z,12096.00
2019-02-20T11:51:38.271Z,11640.00
2019-02-20T11:52:38.621Z,11156.00
2019-02-20T11:53:46.045Z,11204.00
2019-02-20T11:54:38.432Z,11532.00
2019-02-20T11:55:39.466Z,11860.00
2019-02-20T11:56:37.173Z,12504.00
2019-02-20T11:57:37.074Z,12840.00
2019-02-20T11:58:37.072Z,13592.00
2019-02-20T11:59:37.015Z,14320.00
2019-02-20T12:00:37.326Z,15924.00
2019-02-20T12:01:37.000Z,18560.00
2019-02-20T12:02:37.678Z,22624.00
2019-02-20T12:03:36.976Z,25984.00
2019-02-20T12:04:37.580Z,30944.00
2019-02-20T12:05:37.005Z,38912.00
2019-02-20T12:06:36.986Z,42464.00
2019-02-20T12:07:36.930Z,45664.00
2019-02-20T12:08:37.576Z,44448.00
2019-02-20T12:09:37.363Z,42208.00
2019-02-20T12:10:37.058Z,44448.00
2019-02-20T12:11:36.900Z,39968.00
2019-02-20T12:12:36.965Z,42112.00
2019-02-20T12:13:37.004Z,41824.00
2019-02-20T12:14:43.571Z,46112.00
2019-02-20T12:15:36.882Z,53824.00
2019-02-20T12:16:37.256Z,45824.00
2019-02-20T12:17:36.939Z,40192.00
2019-02-20T12:18:37.851Z,36832.00
2019-02-20T12:19:39.300Z,35040.00
2019-02-20T12:20:36.790Z,37056.00
2019-02-20T12:21:36.797Z,38016.00
2019-02-20T12:22:36.834Z,33760.00
2019-02-20T12:23:42.439Z,21536.00
2019-02-20T12:24:37.773Z,16216.00
2019-02-20T12:25:43.959Z,15576.00
2019-02-20T12:26:37.487Z,15412.00
2019-02-20T12:27:36.760Z,15952.00
2019-02-20T12:28:36.750Z,14284.00
2019-02-20T12:29:36.810Z,13772.00